Time;durP1;ratioP1;P1;durP2;ratioP2;P2;SDS_P1;SDS_P2;PMS_P1;PMS_P2;Temp;Humidity;BMP_temperature;BMP_pressure;BME280_temperature;BME280_humidity;BME280_pressure;Samples;Min_cycle;Max_cycle;Signal;HPM_P1;HPM_P2
2022/05/27 00:00:16;;;;;;;;;;;21.40;48.60;;;;;;4945615;28;19942;-53
2022/05/27 00:02:44;;;;;;;;;;;21.40;48.00;;;;;;4933184;28;19953;-53
2022/05/27 00:05:10;;;;;;;;;;;21.40;48.00;;;;;;4936660;28;19939;-56
2022/05/27 00:07:37;;;;;;;;;;;21.40;48.10;;;;;;4939263;28;19938;-57
2022/05/27 00:10:04;;;;;;;;;;;21.40;48.10;;;;;;4942245;28;19989;-56
2022/05/27 00:12:31;;;;;;;;;;;21.40;48.10;;;;;;4978733;28;19939;-56
2022/05/27 00:14:58;;;;;;;;;;;21.40;48.10;;;;;;4935740;28;19930;-54
2022/05/27 00:17:24;;;;;;;;;;;21.40;48.10;;;;;;4927033;29;19981;-56
2022/05/27 00:19:53;;;;;;;;;;;21.40;48.10;;;;;;4943310;28;20019;-56
2022/05/27 00:22:19;;;;;;;;;;;21.40;48.10;;;;;;4934947;28;20364;-57
2022/05/27 00:24:46;;;;;;;;;;;21.40;48.10;;;;;;4936095;28;19927;-58
2022/05/27 00:27:13;;;;;;;;;;;21.40;48.10;;;;;;4919383;29;19934;-57
2022/05/27 00:29:39;;;;;;;;;;;21.40;48.10;;;;;;4947046;28;19986;-57
2022/05/27 00:32:07;;;;;;;;;;;21.40;48.10;;;;;;4956178;28;19934;-54
2022/05/27 00:34:33;;;;;;;;;;;21.40;48.10;;;;;;4942355;28;20339;-57
2022/05/27 00:37:04;;;;;;;;;;;21.40;48.10;;;;;;4936311;28;19927;-54
2022/05/27 00:39:30;;;;;;;;;;;21.40;48.10;;;;;;4922483;28;19970;-58
2022/05/27 00:41:57;;;;;;;;;;;21.40;48.10;;;;;;4948231;28;19966;-55
2022/05/27 00:44:24;;;;;;;;;;;21.40;48.10;;;;;;4947544;28;19950;-54
2022/05/27 00:46:51;;;;;;;;;;;21.40;48.20;;;;;;4951775;28;19966;-56
2022/05/27 00:49:18;;;;;;;;;;;21.40;48.20;;;;;;4935423;29;19976;-54
2022/05/27 00:51:46;;;;;;;;;;;21.40;48.10;;;;;;4934719;29;20029;-55
2022/05/27 00:54:14;;;;;;;;;;;21.40;48.10;;;;;;4935255;29;19945;-55
2022/05/27 00:56:41;;;;;;;;;;;21.40;48.10;;;;;;4933717;28;19939;-55
2022/05/27 00:59:09;;;;;;;;;;;21.40;48.10;;;;;;4925710;29;19935;-52
2022/05/27 01:01:35;;;;;;;;;;;21.40;48.20;;;;;;4949290;28;19931;-53
2022/05/27 01:04:02;;;;;;;;;;;21.40;48.10;;;;;;4934316;28;19993;-56
2022/05/27 01:06:29;;;;;;;;;;;21.40;48.10;;;;;;4948277;28;20047;-59
2022/05/27 01:08:56;;;;;;;;;;;21.40;48.10;;;;;;4983232;28;19966;-56
2022/05/27 01:11:27;;;;;;;;;;;21.40;48.10;;;;;;4929383;28;20514;-56
2022/05/27 01:13:58;;;;;;;;;;;21.40;48.10;;;;;;4962757;28;20019;-56
2022/05/27 01:16:28;;;;;;;;;;;21.40;48.10;;;;;;4949490;28;19927;-57
2022/05/27 01:22:00;;;;;;;;;;;21.40;48.10;;;;;;4948402;28;19938;-58
2022/05/27 01:24:35;;;;;;;;;;;21.40;48.10;;;;;;4945091;28;19973;-56
2022/05/27 01:27:11;;;;;;;;;;;21.40;48.20;;;;;;4945663;28;19927;-54
2022/05/27 01:29:48;;;;;;;;;;;21.40;48.20;;;;;;4954974;28;19970;-53
2022/05/27 01:32:17;;;;;;;;;;;21.50;48.30;;;;;;4952190;28;19981;-53
2022/05/27 01:34:47;;;;;;;;;;;21.40;48.20;;;;;;4955447;28;19926;-52
2022/05/27 01:37:14;;;;;;;;;;;21.40;48.20;;;;;;4946653;28;20041;-52
2022/05/27 01:39:42;;;;;;;;;;;21.40;48.20;;;;;;5001831;28;19933;-54
2022/05/27 01:42:10;;;;;;;;;;;21.40;48.20;;;;;;5012067;28;19984;-59
2022/05/27 01:44:37;;;;;;;;;;;21.40;48.20;;;;;;4934455;28;19989;-54
2022/05/27 01:47:04;;;;;;;;;;;21.40;48.20;;;;;;4933075;29;19949;-51
2022/05/27 01:49:34;;;;;;;;;;;21.40;48.20;;;;;;4949432;28;20410;-56
2022/05/27 01:52:02;;;;;;;;;;;21.40;48.20;;;;;;4943004;28;19931;-55
2022/05/27 01:54:32;;;;;;;;;;;21.40;48.30;;;;;;4931490;28;19949;-57
2022/05/27 01:57:00;;;;;;;;;;;21.40;48.20;;;;;;4949507;28;19935;-52
2022/05/27 01:59:28;;;;;;;;;;;21.40;48.20;;;;;;4939459;28;19930;-53
2022/05/27 02:01:55;;;;;;;;;;;21.50;48.30;;;;;;4945886;28;20399;-55
2022/05/27 02:04:45;;;;;;;;;;;21.40;48.20;;;;;;4922863;28;20028;-55
2022/05/27 02:07:14;;;;;;;;;;;21.40;48.30;;;;;;4949874;28;19939;-54
2022/05/27 02:09:41;;;;;;;;;;;21.40;48.30;;;;;;4950770;28;19927;-50
2022/05/27 02:12:09;;;;;;;;;;;21.40;48.20;;;;;;4944451;28;20004;-49
2022/05/27 02:14:37;;;;;;;;;;;21.40;48.20;;;;;;4952980;28;19960;-52
2022/05/27 02:17:04;;;;;;;;;;;21.40;48.20;;;;;;4938089;28;19975;-49
2022/05/27 02:19:31;;;;;;;;;;;21.40;48.20;;;;;;4931352;28;19939;-51
2022/05/27 02:22:00;;;;;;;;;;;21.40;48.10;;;;;;4946851;28;20281;-53
2022/05/27 02:24:27;;;;;;;;;;;21.40;48.10;;;;;;4969357;28;19933;-50
2022/05/27 02:26:55;;;;;;;;;;;21.40;48.10;;;;;;4973606;28;19961;-54
2022/05/27 02:29:23;;;;;;;;;;;21.40;48.10;;;;;;4958204;28;20380;-52
2022/05/27 02:31:50;;;;;;;;;;;21.40;48.10;;;;;;4928562;29;19935;-53
2022/05/27 02:37:04;;;;;;;;;;;21.40;48.10;;;;;;4937076;28;19931;-56
2022/05/27 02:39:31;;;;;;;;;;;21.40;48.00;;;;;;4943541;29;19930;-53
2022/05/27 02:42:02;;;;;;;;;;;21.40;48.00;;;;;;4931082;28;19989;-52
2022/05/27 02:44:31;;;;;;;;;;;21.40;48.00;;;;;;4932537;28;19935;-56
2022/05/27 02:46:59;;;;;;;;;;;21.40;48.00;;;;;;4936114;28;19938;-53
2022/05/27 02:49:27;;;;;;;;;;;21.40;48.00;;;;;;4947001;28;19981;-53
2022/05/27 02:51:55;;;;;;;;;;;21.40;48.00;;;;;;4931934;29;20455;-53
2022/05/27 02:54:26;;;;;;;;;;;21.40;47.90;;;;;;4974063;28;21443;-53
2022/05/27 02:56:55;;;;;;;;;;;21.40;47.90;;;;;;4932260;28;19926;-56
2022/05/27 02:59:22;;;;;;;;;;;21.40;47.90;;;;;;4948506;28;20036;-57
2022/05/27 03:01:49;;;;;;;;;;;21.40;47.80;;;;;;4934830;28;20193;-57
2022/05/27 03:04:16;;;;;;;;;;;21.40;47.80;;;;;;4926639;28;20395;-51
2022/05/27 03:06:46;;;;;;;;;;;21.40;47.80;;;;;;4928707;29;19980;-58
2022/05/27 03:09:15;;;;;;;;;;;21.40;47.80;;;;;;4982464;28;19973;-51
2022/05/27 03:11:46;;;;;;;;;;;21.40;47.80;;;;;;4931092;29;19927;-54
2022/05/27 03:14:38;;;;;;;;;;;21.40;47.70;;;;;;4932958;28;19931;-52
2022/05/27 03:17:12;;;;;;;;;;;21.40;47.70;;;;;;4926321;28;20312;-53
2022/05/27 03:19:44;;;;;;;;;;;21.40;47.70;;;;;;4942046;28;20479;-57
2022/05/27 03:22:13;;;;;;;;;;;21.40;47.70;;;;;;4931101;28;20521;-56
2022/05/27 03:24:43;;;;;;;;;;;21.40;47.60;;;;;;4948326;28;20439;-54
2022/05/27 03:27:14;;;;;;;;;;;21.40;47.60;;;;;;4990841;28;19929;-54
2022/05/27 03:29:43;;;;;;;;;;;21.40;47.60;;;;;;4955925;28;19977;-56
2022/05/27 03:32:12;;;;;;;;;;;21.40;47.50;;;;;;4934463;28;19980;-55
2022/05/27 03:34:40;;;;;;;;;;;21.40;47.50;;;;;;4940544;28;20449;-53
2022/05/27 03:37:08;;;;;;;;;;;21.40;47.50;;;;;;4947916;28;19935;-54
2022/05/27 03:39:36;;;;;;;;;;;21.40;47.50;;;;;;4951216;28;19927;-53
2022/05/27 03:42:04;;;;;;;;;;;21.40;47.50;;;;;;4953249;28;19927;-54
2022/05/27 03:44:32;;;;;;;;;;;21.40;47.40;;;;;;4970086;28;19929;-53
2022/05/27 03:46:58;;;;;;;;;;;21.40;47.40;;;;;;4951185;28;19927;-52
2022/05/27 03:49:25;;;;;;;;;;;21.40;47.40;;;;;;4930170;28;19934;-53
2022/05/27 03:51:53;;;;;;;;;;;21.40;47.40;;;;;;4919592;28;19927;-52
2022/05/27 03:54:21;;;;;;;;;;;21.40;47.40;;;;;;4935439;28;19931;-55
2022/05/27 03:56:47;;;;;;;;;;;21.30;47.20;;;;;;4940989;28;19935;-53
2022/05/27 03:59:14;;;;;;;;;;;21.30;47.20;;;;;;4944502;28;19930;-53
2022/05/27 04:01:43;;;;;;;;;;;21.30;47.20;;;;;;4931711;28;20376;-51
2022/05/27 04:04:11;;;;;;;;;;;21.30;47.20;;;;;;4928062;29;19934;-55
2022/05/27 04:06:38;;;;;;;;;;;21.40;47.30;;;;;;4930751;29;19985;-54
2022/05/27 04:09:04;;;;;;;;;;;21.30;47.10;;;;;;4929453;28;19989;-55
2022/05/27 04:11:31;;;;;;;;;;;21.30;47.10;;;;;;4947025;28;19934;-54
2022/05/27 04:13:58;;;;;;;;;;;21.30;47.00;;;;;;4931973;28;20017;-57
2022/05/27 04:16:24;;;;;;;;;;;21.30;47.00;;;;;;4961748;28;20061;-57
2022/05/27 04:18:53;;;;;;;;;;;21.40;47.10;;;;;;4944926;28;20556;-56
2022/05/27 04:21:20;;;;;;;;;;;21.30;47.00;;;;;;4962532;28;20025;-55
2022/05/27 04:23:47;;;;;;;;;;;21.30;46.90;;;;;;4944058;28;20341;-55
2022/05/27 04:26:13;;;;;;;;;;;21.30;46.90;;;;;;4955467;28;20300;-52
2022/05/27 04:28:40;;;;;;;;;;;21.30;46.90;;;;;;4938927;28;20420;-55
2022/05/27 04:31:07;;;;;;;;;;;21.30;46.90;;;;;;4930556;28;19949;-52
2022/05/27 04:33:33;;;;;;;;;;;21.30;46.80;;;;;;4943386;28;20022;-56
2022/05/27 04:36:02;;;;;;;;;;;21.30;46.80;;;;;;4926332;29;19962;-54
2022/05/27 04:38:28;;;;;;;;;;;21.30;46.80;;;;;;4953185;28;19929;-54
2022/05/27 04:40:55;;;;;;;;;;;21.30;46.70;;;;;;4936917;28;19982;-51
2022/05/27 04:43:22;;;;;;;;;;;21.30;46.70;;;;;;4929898;28;19933;-54
2022/05/27 04:45:49;;;;;;;;;;;21.30;46.70;;;;;;4946345;28;20398;-54
2022/05/27 04:48:16;;;;;;;;;;;21.30;46.70;;;;;;4962077;28;19954;-52
2022/05/27 04:50:42;;;;;;;;;;;21.30;46.70;;;;;;4924750;28;19958;-55
2022/05/27 04:53:10;;;;;;;;;;;21.30;46.70;;;;;;4927666;28;20014;-57
2022/05/27 04:55:37;;;;;;;;;;;21.30;46.60;;;;;;4927009;29;19986;-57
2022/05/27 04:58:04;;;;;;;;;;;21.30;46.60;;;;;;4925755;28;19935;-52
2022/05/27 05:00:31;;;;;;;;;;;21.30;46.60;;;;;;4938906;28;20399;-56
2022/05/27 05:02:58;;;;;;;;;;;21.30;46.50;;;;;;4929270;28;20006;-51
2022/05/27 05:05:30;;;;;;;;;;;21.30;46.50;;;;;;4930629;28;19955;-55
2022/05/27 05:07:57;;;;;;;;;;;21.30;46.50;;;;;;4939981;28;20267;-56
2022/05/27 05:10:25;;;;;;;;;;;21.30;46.50;;;;;;4933788;29;19927;-50
2022/05/27 05:12:51;;;;;;;;;;;21.30;46.40;;;;;;4943892;28;19977;-56
2022/05/27 05:15:18;;;;;;;;;;;21.30;46.40;;;;;;4933975;28;19977;-55
2022/05/27 05:17:46;;;;;;;;;;;21.30;46.30;;;;;;4926305;28;19953;-53
2022/05/27 05:20:13;;;;;;;;;;;21.30;46.30;;;;;;4934677;28;20049;-53
2022/05/27 05:22:40;;;;;;;;;;;21.30;46.30;;;;;;4929106;28;19981;-58
2022/05/27 05:25:07;;;;;;;;;;;21.30;46.30;;;;;;4939556;28;20031;-55
2022/05/27 05:27:38;;;;;;;;;;;21.30;46.30;;;;;;4922369;29;19927;-57
2022/05/27 05:30:06;;;;;;;;;;;21.30;46.20;;;;;;5011437;28;19950;-55
2022/05/27 05:32:33;;;;;;;;;;;21.30;46.30;;;;;;4937758;28;19925;-55
2022/05/27 05:34:59;;;;;;;;;;;21.30;46.20;;;;;;4948280;28;19997;-58
2022/05/27 05:37:26;;;;;;;;;;;21.30;46.20;;;;;;4932775;28;20251;-56
2022/05/27 05:39:53;;;;;;;;;;;21.30;46.20;;;;;;4931042;28;19977;-55
2022/05/27 05:42:19;;;;;;;;;;;21.30;46.20;;;;;;4939234;28;19970;-54
2022/05/27 05:44:47;;;;;;;;;;;21.30;46.30;;;;;;4950172;28;20005;-54
2022/05/27 05:47:14;;;;;;;;;;;21.30;46.30;;;;;;4924919;29;19927;-55
2022/05/27 05:49:42;;;;;;;;;;;21.30;46.20;;;;;;4976999;28;19930;-53
2022/05/27 05:52:08;;;;;;;;;;;21.30;46.20;;;;;;4932592;29;20012;-55
2022/05/27 05:54:35;;;;;;;;;;;21.30;46.20;;;;;;4979240;28;19925;-55
2022/05/27 05:57:03;;;;;;;;;;;21.30;46.20;;;;;;4953362;28;19931;-55
2022/05/27 05:59:30;;;;;;;;;;;21.30;46.20;;;;;;4929290;29;19978;-56
2022/05/27 06:01:58;;;;;;;;;;;21.30;46.10;;;;;;4955654;28;19926;-56
2022/05/27 06:04:25;;;;;;;;;;;21.30;46.10;;;;;;4949399;29;20328;-56
2022/05/27 06:06:52;;;;;;;;;;;21.30;46.10;;;;;;4935444;28;20386;-56
2022/05/27 06:09:19;;;;;;;;;;;21.30;46.20;;;;;;4957606;28;20471;-52
2022/05/27 06:11:46;;;;;;;;;;;21.30;46.20;;;;;;4946998;28;19989;-53
2022/05/27 06:14:13;;;;;;;;;;;21.30;46.10;;;;;;4935041;29;19927;-53
2022/05/27 06:16:39;;;;;;;;;;;21.30;46.10;;;;;;4943394;28;19935;-57
2022/05/27 06:19:08;;;;;;;;;;;21.30;46.10;;;;;;4947961;28;19958;-55
2022/05/27 06:21:35;;;;;;;;;;;21.30;46.10;;;;;;4946224;28;19927;-55
2022/05/27 06:24:01;;;;;;;;;;;21.30;46.10;;;;;;4945226;28;20021;-58
2022/05/27 06:26:28;;;;;;;;;;;21.30;46.10;;;;;;4930299;28;20398;-59
2022/05/27 06:34:26;;;;;;;;;;;21.30;46.00;;;;;;4915787;28;19927;-62
2022/05/27 06:36:54;;;;;;;;;;;21.30;45.40;;;;;;4919085;28;19977;-57
2022/05/27 06:39:20;;;;;;;;;;;21.30;45.80;;;;;;4939625;28;19941;-56
2022/05/27 06:41:47;;;;;;;;;;;21.30;45.70;;;;;;4921591;29;19934;-54
2022/05/27 06:44:14;;;;;;;;;;;21.30;45.70;;;;;;4932314;28;19927;-54
2022/05/27 06:46:41;;;;;;;;;;;21.20;45.70;;;;;;4922910;29;19933;-57
2022/05/27 06:49:07;;;;;;;;;;;21.20;45.50;;;;;;4935878;28;19966;-55
2022/05/27 06:51:36;;;;;;;;;;;21.20;45.10;;;;;;4927154;28;20054;-56
2022/05/27 06:54:02;;;;;;;;;;;21.20;45.00;;;;;;4925894;28;20288;-53
2022/05/27 06:56:29;;;;;;;;;;;21.20;44.70;;;;;;4926782;28;19934;-54
2022/05/27 06:58:56;;;;;;;;;;;21.20;44.50;;;;;;4918888;28;19994;-53
2022/05/27 07:01:23;;;;;;;;;;;21.20;44.30;;;;;;4923820;28;20418;-53
2022/05/27 07:03:49;;;;;;;;;;;21.10;44.10;;;;;;4927328;28;20323;-52
2022/05/27 07:06:16;;;;;;;;;;;21.10;44.00;;;;;;4942055;28;20057;-55
2022/05/27 07:08:44;;;;;;;;;;;21.10;44.00;;;;;;4919405;28;20173;-55
2022/05/27 07:11:11;;;;;;;;;;;21.10;43.90;;;;;;4942584;28;19927;-55
2022/05/27 07:13:38;;;;;;;;;;;21.10;43.80;;;;;;4939707;28;19950;-54
2022/05/27 07:16:06;;;;;;;;;;;21.10;43.60;;;;;;4931054;28;20377;-56
2022/05/27 07:18:32;;;;;;;;;;;21.10;43.30;;;;;;4926512;28;19941;-55
2022/05/27 07:20:59;;;;;;;;;;;21.00;42.80;;;;;;4932293;28;19953;-53
2022/05/27 07:23:26;;;;;;;;;;;21.00;42.50;;;;;;4931856;28;20384;-55
2022/05/27 07:25:55;;;;;;;;;;;21.00;42.20;;;;;;4956509;28;19929;-57
2022/05/27 07:28:21;;;;;;;;;;;21.00;42.00;;;;;;4950963;28;19927;-57
2022/05/27 07:30:48;;;;;;;;;;;20.90;41.80;;;;;;4942050;28;19934;-55
2022/05/27 07:33:15;;;;;;;;;;;20.90;41.60;;;;;;4925556;28;20396;-56
2022/05/27 07:35:42;;;;;;;;;;;20.90;41.50;;;;;;4922898;28;19969;-54
2022/05/27 07:38:08;;;;;;;;;;;20.90;41.30;;;;;;4931275;28;19938;-57
2022/05/27 07:40:35;;;;;;;;;;;20.90;41.20;;;;;;4945092;28;19937;-57
2022/05/27 07:43:03;;;;;;;;;;;20.80;41.00;;;;;;4930855;28;19927;-56
2022/05/27 07:45:31;;;;;;;;;;;20.80;41.00;;;;;;4941292;28;20428;-56
2022/05/27 07:47:58;;;;;;;;;;;20.80;40.90;;;;;;4946164;28;19935;-57
2022/05/27 07:50:24;;;;;;;;;;;20.80;40.90;;;;;;4941590;28;19935;-58
2022/05/27 07:52:51;;;;;;;;;;;20.80;40.90;;;;;;4922812;28;19931;-56
2022/05/27 07:55:18;;;;;;;;;;;20.80;40.90;;;;;;4929330;28;20327;-57
2022/05/27 07:57:45;;;;;;;;;;;20.80;40.80;;;;;;4932147;28;20384;-57
2022/05/27 08:00:14;;;;;;;;;;;20.80;40.60;;;;;;4954123;28;20388;-56
2022/05/27 08:02:41;;;;;;;;;;;20.80;40.60;;;;;;4929079;28;19981;-56
2022/05/27 08:05:09;;;;;;;;;;;20.70;40.40;;;;;;4943081;28;20004;-58
2022/05/27 08:07:35;;;;;;;;;;;20.70;40.40;;;;;;4941007;28;19935;-57
2022/05/27 08:10:02;;;;;;;;;;;20.70;40.30;;;;;;4925793;28;19927;-56
2022/05/27 08:12:29;;;;;;;;;;;20.70;40.30;;;;;;4927931;29;19930;-56
2022/05/27 08:14:55;;;;;;;;;;;20.70;40.20;;;;;;4928247;28;20296;-52
2022/05/27 08:17:24;;;;;;;;;;;20.70;40.00;;;;;;4940850;28;19933;-56
2022/05/27 08:19:51;;;;;;;;;;;20.70;40.00;;;;;;4932132;28;19927;-56
2022/05/27 08:22:18;;;;;;;;;;;20.70;39.80;;;;;;4943720;28;19927;-55
2022/05/27 08:24:44;;;;;;;;;;;20.70;39.60;;;;;;4950007;28;20029;-56
2022/05/27 08:27:11;;;;;;;;;;;20.70;39.50;;;;;;4930524;28;20105;-57
2022/05/27 08:29:39;;;;;;;;;;;20.70;39.50;;;;;;4932665;28;20017;-54
2022/05/27 08:32:06;;;;;;;;;;;20.70;39.40;;;;;;4944870;28;20689;-55
2022/05/27 08:40:03;;;;;;;;;;;20.70;38.90;;;;;;4930173;28;19927;-56
2022/05/27 08:42:31;;;;;;;;;;;20.70;38.70;;;;;;4945392;28;20369;-54
2022/05/27 08:44:59;;;;;;;;;;;20.60;38.60;;;;;;4930266;28;19973;-57
2022/05/27 08:47:26;;;;;;;;;;;20.60;38.50;;;;;;4933266;28;20289;-57
2022/05/27 08:50:05;;;;;;;;;;;20.60;38.60;;;;;;4933074;28;19931;-56
2022/05/27 08:52:32;;;;;;;;;;;20.60;38.50;;;;;;4944505;28;19927;-54
2022/05/27 08:55:00;;;;;;;;;;;20.70;38.70;;;;;;4946723;28;20096;-58
2022/05/27 09:00:14;;;;;;;;;;;20.60;38.50;;;;;;4944118;28;19934;-53
2022/05/27 09:02:42;;;;;;;;;;;20.60;38.30;;;;;;4936865;28;19927;-55
2022/05/27 09:05:15;;;;;;;;;;;20.60;38.20;;;;;;4936674;28;19927;-56
2022/05/27 09:07:43;;;;;;;;;;;20.60;38.10;;;;;;4926421;28;19992;-57
2022/05/27 09:10:11;;;;;;;;;;;20.60;37.90;;;;;;4935167;28;19988;-55
2022/05/27 09:13:11;;;;;;;;;;;20.60;37.70;;;;;;4933318;28;19927;-53
2022/05/27 09:15:39;;;;;;;;;;;20.60;37.60;;;;;;4937413;29;19958;-55
2022/05/27 09:18:08;;;;;;;;;;;20.60;37.60;;;;;;4936972;29;19962;-57
2022/05/27 09:20:42;;;;;;;;;;;20.60;37.60;;;;;;4930750;29;19931;-51
2022/05/27 09:23:13;;;;;;;;;;;20.60;37.60;;;;;;4928062;28;19931;-55
2022/05/27 09:25:42;;;;;;;;;;;20.60;37.70;;;;;;4939115;28;20631;-54
2022/05/27 09:28:11;;;;;;;;;;;20.60;37.60;;;;;;4930699;28;19961;-58
2022/05/27 09:30:38;;;;;;;;;;;20.60;37.40;;;;;;4928169;28;19931;-56
2022/05/27 09:33:05;;;;;;;;;;;20.50;37.40;;;;;;4925811;28;20414;-55
2022/05/27 09:35:33;;;;;;;;;;;20.50;37.40;;;;;;4938968;28;19974;-56
2022/05/27 09:38:02;;;;;;;;;;;20.50;37.50;;;;;;4947227;28;19934;-54
2022/05/27 09:40:30;;;;;;;;;;;20.50;37.60;;;;;;4929637;28;19926;-58
2022/05/27 09:42:59;;;;;;;;;;;20.50;37.70;;;;;;4950146;28;20229;-52
2022/05/27 09:45:26;;;;;;;;;;;20.50;37.70;;;;;;4932282;28;19975;-54
2022/05/27 09:47:53;;;;;;;;;;;20.50;37.90;;;;;;4930363;28;20037;-57
2022/05/27 09:50:23;;;;;;;;;;;20.60;38.00;;;;;;4930957;28;19958;-54
2022/05/27 09:52:50;;;;;;;;;;;20.60;38.10;;;;;;4931723;28;20468;-54
2022/05/27 09:55:20;;;;;;;;;;;20.60;38.20;;;;;;4929011;28;19931;-53
2022/05/27 09:57:57;;;;;;;;;;;20.60;38.30;;;;;;4951743;28;20101;-56
2022/05/27 10:00:38;;;;;;;;;;;20.60;38.20;;;;;;4924369;28;19931;-55
2022/05/27 10:03:25;;;;;;;;;;;20.60;38.20;;;;;;4929366;28;19966;-55
2022/05/27 10:05:52;;;;;;;;;;;20.60;38.20;;;;;;4953878;28;19961;-53
2022/05/27 10:08:26;;;;;;;;;;;20.50;38.00;;;;;;4934439;29;20214;-52
2022/05/27 10:10:56;;;;;;;;;;;20.50;38.10;;;;;;4929609;28;19927;-55
2022/05/27 10:13:28;;;;;;;;;;;20.50;38.20;;;;;;4926795;28;20041;-55
2022/05/27 10:15:56;;;;;;;;;;;20.50;38.00;;;;;;4938681;28;20426;-54
2022/05/27 10:18:23;;;;;;;;;;;20.50;38.00;;;;;;4938063;28;19941;-55
2022/05/27 10:20:53;;;;;;;;;;;20.40;38.00;;;;;;4926327;28;19958;-57
2022/05/27 10:23:24;;;;;;;;;;;20.40;38.30;;;;;;4944078;28;19974;-59
2022/05/27 10:25:50;;;;;;;;;;;20.40;38.50;;;;;;4920392;28;19932;-53
2022/05/27 10:28:24;;;;;;;;;;;20.40;38.60;;;;;;5004469;28;20297;-55
2022/05/27 10:30:55;;;;;;;;;;;20.50;38.80;;;;;;4921234;28;19926;-55
2022/05/27 10:33:22;;;;;;;;;;;20.50;39.00;;;;;;4944887;28;20064;-57
2022/05/27 10:35:49;;;;;;;;;;;20.50;39.10;;;;;;4946867;28;20025;-51
2022/05/27 10:38:39;;;;;;;;;;;20.50;39.20;;;;;;4922485;28;19950;-51
2022/05/27 10:41:07;;;;;;;;;;;20.60;39.40;;;;;;4945635;28;20016;-51
2022/05/27 10:43:41;;;;;;;;;;;20.60;39.60;;;;;;4938494;28;19930;-54
2022/05/27 10:46:09;;;;;;;;;;;20.60;39.60;;;;;;4927955;28;19923;-55
2022/05/27 10:48:44;;;;;;;;;;;20.60;39.80;;;;;;4939934;28;19923;-52
2022/05/27 10:51:11;;;;;;;;;;;20.70;40.00;;;;;;4941909;28;20030;-52
2022/05/27 10:53:47;;;;;;;;;;;20.70;40.00;;;;;;4921891;28;19926;-53
2022/05/27 10:56:16;;;;;;;;;;;20.70;40.10;;;;;;4934003;29;19923;-52
2022/05/27 11:04:38;;;;;;;;;;;20.80;40.90;;;;;;4955980;28;20286;-56
2022/05/27 11:07:11;;;;;;;;;;;20.80;40.40;;;;;;4943180;28;19930;-55
2022/05/27 11:09:41;;;;;;;;;;;20.80;40.50;;;;;;4926244;28;19935;-55
2022/05/27 11:12:10;;;;;;;;;;;20.80;40.60;;;;;;4926769;28;19923;-56
2022/05/27 11:17:28;;;;;;;;;;;20.90;40.80;;;;;;4926569;28;19931;-53
2022/05/27 11:20:09;;;;;;;;;;;20.90;40.90;;;;;;4928505;28;19954;-56
2022/05/27 11:22:37;;;;;;;;;;;20.90;40.90;;;;;;4933147;28;20364;-53
2022/05/27 11:25:10;;;;;;;;;;;20.90;41.00;;;;;;4950573;28;19923;-55
2022/05/27 11:27:52;;;;;;;;;;;20.90;41.10;;;;;;4946286;28;19926;-52
2022/05/27 11:30:23;;;;;;;;;;;21.00;41.40;;;;;;4918638;28;19931;-53
2022/05/27 11:32:59;;;;;;;;;;;21.00;41.40;;;;;;4928571;28;19953;-54
2022/05/27 11:35:28;;;;;;;;;;;21.00;41.40;;;;;;4941175;28;19923;-57
2022/05/27 11:37:58;;;;;;;;;;;21.00;41.40;;;;;;4943833;28;19954;-57
2022/05/27 11:40:28;;;;;;;;;;;21.00;41.40;;;;;;4941884;28;20372;-55
2022/05/27 11:42:59;;;;;;;;;;;21.00;41.40;;;;;;4940231;28;19926;-57
2022/05/27 11:45:28;;;;;;;;;;;21.10;41.50;;;;;;4927298;28;19980;-57
2022/05/27 11:47:59;;;;;;;;;;;21.10;41.60;;;;;;4941174;28;20026;-57
2022/05/27 11:50:46;;;;;;;;;;;21.10;41.60;;;;;;4949997;28;20278;-60
2022/05/27 11:53:17;;;;;;;;;;;21.10;41.50;;;;;;4925644;28;20275;-54
2022/05/27 11:55:52;;;;;;;;;;;21.10;41.50;;;;;;4922832;28;20036;-55
2022/05/27 11:58:19;;;;;;;;;;;21.10;42.10;;;;;;4941331;28;20002;-57
2022/05/27 12:00:48;;;;;;;;;;;21.10;41.60;;;;;;4924507;28;19966;-56
2022/05/27 12:03:17;;;;;;;;;;;21.10;41.60;;;;;;4918055;28;19923;-55
2022/05/27 12:05:45;;;;;;;;;;;21.10;41.60;;;;;;4937719;28;19973;-57
2022/05/27 12:08:16;;;;;;;;;;;21.20;41.70;;;;;;4942695;28;19923;-56
2022/05/27 12:10:44;;;;;;;;;;;21.20;41.70;;;;;;4927926;28;19930;-55
2022/05/27 12:13:12;;;;;;;;;;;21.20;41.70;;;;;;4931064;28;19928;-56
2022/05/27 12:15:39;;;;;;;;;;;21.20;41.70;;;;;;4914081;28;19930;-54
2022/05/27 12:18:10;;;;;;;;;;;21.20;41.80;;;;;;4931505;28;19953;-55
2022/05/27 12:20:36;;;;;;;;;;;21.20;41.70;;;;;;4936589;28;19930;-56
2022/05/27 12:23:05;;;;;;;;;;;21.20;41.80;;;;;;4922271;28;20019;-59
2022/05/27 12:25:32;;;;;;;;;;;21.20;41.80;;;;;;4932985;28;20283;-61
2022/05/27 12:28:00;;;;;;;;;;;21.20;41.80;;;;;;4916584;28;19924;-56
2022/05/27 12:30:29;;;;;;;;;;;21.20;41.80;;;;;;4942143;28;19985;-57
2022/05/27 12:32:56;;;;;;;;;;;21.20;41.70;;;;;;4930383;28;19950;-54
2022/05/27 12:35:27;;;;;;;;;;;21.20;41.70;;;;;;4936383;28;19933;-53
2022/05/27 12:37:58;;;;;;;;;;;21.20;41.70;;;;;;4944528;28;20010;-57
2022/05/27 12:40:27;;;;;;;;;;;21.20;41.70;;;;;;4943029;28;19988;-57
2022/05/27 12:42:54;;;;;;;;;;;21.20;41.60;;;;;;4942221;28;19927;-53
2022/05/27 12:45:22;;;;;;;;;;;21.20;41.60;;;;;;4942020;28;19933;-53
2022/05/27 12:47:49;;;;;;;;;;;21.20;41.60;;;;;;4927338;28;19981;-52
2022/05/27 12:50:17;;;;;;;;;;;21.20;41.60;;;;;;4944212;28;19927;-53
2022/05/27 12:52:52;;;;;;;;;;;21.20;41.60;;;;;;4929279;28;20025;-55
2022/05/27 12:55:33;;;;;;;;;;;21.20;41.50;;;;;;4919178;28;19945;-55
2022/05/27 13:00:57;;;;;;;;;;;21.20;41.50;;;;;;4982970;28;20068;-55
2022/05/27 13:03:44;;;;;;;;;;;21.20;41.50;;;;;;4913489;28;19934;-53
2022/05/27 13:06:15;;;;;;;;;;;21.20;41.50;;;;;;4934735;28;19950;-57
2022/05/27 13:08:46;;;;;;;;;;;21.30;41.60;;;;;;4939581;28;19927;-55
2022/05/27 13:11:14;;;;;;;;;;;21.30;41.60;;;;;;4926962;28;19930;-51
2022/05/27 13:13:41;;;;;;;;;;;21.20;41.60;;;;;;4937943;28;20380;-55
2022/05/27 13:16:09;;;;;;;;;;;21.30;41.60;;;;;;4932344;28;19923;-54
2022/05/27 13:18:36;;;;;;;;;;;21.30;41.60;;;;;;4921641;28;19923;-54
2022/05/27 13:21:05;;;;;;;;;;;21.30;41.70;;;;;;4929996;28;20324;-56
2022/05/27 13:23:32;;;;;;;;;;;21.30;41.60;;;;;;4931761;28;19938;-57
2022/05/27 13:26:02;;;;;;;;;;;21.30;41.70;;;;;;4945626;28;19973;-57
2022/05/27 13:28:31;;;;;;;;;;;21.30;41.70;;;;;;4932781;28;19933;-56
2022/05/27 13:31:03;;;;;;;;;;;21.30;41.60;;;;;;4945096;28;19929;-56
2022/05/27 13:33:30;;;;;;;;;;;21.30;41.60;;;;;;4931110;28;19927;-53
2022/05/27 13:35:57;;;;;;;;;;;21.30;41.70;;;;;;4931582;28;19923;-56
2022/05/27 13:38:25;;;;;;;;;;;21.30;41.70;;;;;;4943430;28;19966;-56
2022/05/27 13:40:52;;;;;;;;;;;21.30;41.70;;;;;;4943073;28;19935;-54
2022/05/27 13:43:23;;;;;;;;;;;21.30;41.70;;;;;;4929833;28;19927;-50
2022/05/27 13:45:51;;;;;;;;;;;21.30;41.80;;;;;;4921283;28;20298;-52
2022/05/27 13:48:18;;;;;;;;;;;21.30;41.80;;;;;;4924646;28;19927;-57
2022/05/27 13:50:46;;;;;;;;;;;21.30;41.90;;;;;;4931203;28;19978;-55
2022/05/27 13:53:20;;;;;;;;;;;21.30;42.00;;;;;;4921748;28;19923;-58
2022/05/27 13:55:46;;;;;;;;;;;21.40;42.10;;;;;;4967560;28;20327;-53
2022/05/27 13:58:14;;;;;;;;;;;21.40;42.10;;;;;;4991465;28;20378;-53
2022/05/27 14:00:44;;;;;;;;;;;21.40;42.10;;;;;;4924420;28;19923;-55
2022/05/27 14:03:10;;;;;;;;;;;21.40;42.20;;;;;;4952260;28;19930;-52
2022/05/27 14:05:37;;;;;;;;;;;21.40;42.20;;;;;;4928082;28;19949;-54
2022/05/27 14:08:04;;;;;;;;;;;21.40;42.20;;;;;;4932741;28;19934;-56
2022/05/27 14:10:32;;;;;;;;;;;21.40;42.20;;;;;;4942508;28;20053;-54
2022/05/27 14:13:00;;;;;;;;;;;21.40;42.20;;;;;;4925048;28;20030;-55
2022/05/27 14:15:28;;;;;;;;;;;21.40;42.20;;;;;;4930048;28;20395;-56
2022/05/27 14:17:56;;;;;;;;;;;21.40;42.20;;;;;;4918991;28;20398;-57
2022/05/27 14:20:25;;;;;;;;;;;21.40;42.20;;;;;;4946202;28;19934;-58
2022/05/27 14:22:51;;;;;;;;;;;21.40;42.30;;;;;;4931430;28;19969;-57
2022/05/27 14:25:19;;;;;;;;;;;21.40;42.30;;;;;;4923230;28;19924;-56
2022/05/27 14:27:48;;;;;;;;;;;21.50;42.40;;;;;;4930727;28;19931;-57
2022/05/27 14:30:16;;;;;;;;;;;21.40;42.40;;;;;;4933643;28;20013;-57
2022/05/27 14:32:43;;;;;;;;;;;21.50;42.50;;;;;;4939492;28;19965;-54
2022/05/27 14:35:12;;;;;;;;;;;21.50;42.50;;;;;;4944438;28;19957;-60
2022/05/27 14:37:42;;;;;;;;;;;21.40;42.30;;;;;;5013816;28;19962;-55
2022/05/27 14:40:09;;;;;;;;;;;21.50;42.40;;;;;;4931916;28;19977;-56
2022/05/27 14:42:36;;;;;;;;;;;21.50;42.40;;;;;;4929363;28;19941;-56
2022/05/27 14:45:08;;;;;;;;;;;21.50;42.40;;;;;;4918911;28;19923;-59
2022/05/27 14:47:34;;;;;;;;;;;21.50;42.50;;;;;;4954352;28;20030;-56
2022/05/27 14:50:02;;;;;;;;;;;21.50;42.40;;;;;;4937735;28;19973;-57
2022/05/27 14:52:31;;;;;;;;;;;21.50;42.30;;;;;;4937599;28;20021;-57
2022/05/27 14:55:01;;;;;;;;;;;21.40;42.20;;;;;;4921019;28;19993;-57